sensor_id;sensor_type;location;lat;lon;timestamp;temperature;humidity
11650;DHT22;5881;48.522;7.682;2023-02-26T00:01:01;1.00;1.00
11650;DHT22;5881;48.522;7.682;2023-02-26T00:03:27;1.00;1.00
11650;DHT22;5881;48.522;7.682;2023-02-26T00:05:52;1.00;1.00
11650;DHT22;5881;48.522;7.682;2023-02-26T00:08:18;1.00;1.00
11650;DHT22;5881;48.522;7.682;2023-02-26T00:10:44;0.90;1.00
11650;DHT22;5881;48.522;7.682;2023-02-26T00:13:10;0.90;1.00
11650;DHT22;5881;48.522;7.682;2023-02-26T00:15:36;0.90;1.00
11650;DHT22;5881;48.522;7.682;2023-02-26T00:18:06;0.90;1.00
11650;DHT22;5881;48.522;7.682;2023-02-26T00:20:35;0.80;1.00
11650;DHT22;5881;48.522;7.682;2023-02-26T00:23:02;0.80;1.00
11650;DHT22;5881;48.522;7.682;2023-02-26T00:25:27;0.70;1.00
11650;DHT22;5881;48.522;7.682;2023-02-26T00:27:53;0.70;1.00
11650;DHT22;5881;48.522;7.682;2023-02-26T00:30:19;0.70;1.00
11650;DHT22;5881;48.522;7.682;2023-02-26T00:32:45;0.70;1.00
11650;DHT22;5881;48.522;7.682;2023-02-26T00:35:13;0.70;1.00
11650;DHT22;5881;48.522;7.682;2023-02-26T00:38:00;0.70;1.00
11650;DHT22;5881;48.522;7.682;2023-02-26T00:43:08;0.60;1.00
11650;DHT22;5881;48.522;7.682;2023-02-26T00:45:34;0.60;1.00
11650;DHT22;5881;48.522;7.682;2023-02-26T00:51:18;0.60;1.00
11650;DHT22;5881;48.522;7.682;2023-02-26T00:56:28;0.50;1.00
11650;DHT22;5881;48.522;7.682;2023-02-26T00:58:54;0.50;1.00
11650;DHT22;5881;48.522;7.682;2023-02-26T01:01:20;0.40;1.00
11650;DHT22;5881;48.522;7.682;2023-02-26T01:03:45;0.40;1.00
11650;DHT22;5881;48.522;7.682;2023-02-26T01:06:14;0.50;1.00
11650;DHT22;5881;48.522;7.682;2023-02-26T01:09:04;0.40;1.00
11650;DHT22;5881;48.522;7.682;2023-02-26T01:11:34;0.40;1.00
11650;DHT22;5881;48.522;7.682;2023-02-26T01:14:00;0.40;1.00
11650;DHT22;5881;48.522;7.682;2023-02-26T01:16:27;0.30;1.00
11650;DHT22;5881;48.522;7.682;2023-02-26T01:19:02;0.40;1.00
11650;DHT22;5881;48.522;7.682;2023-02-26T01:21:35;0.40;1.00
11650;DHT22;5881;48.522;7.682;2023-02-26T01:24:05;0.40;1.00
11650;DHT22;5881;48.522;7.682;2023-02-26T01:26:32;0.30;1.00
11650;DHT22;5881;48.522;7.682;2023-02-26T01:28:57;0.30;1.00
11650;DHT22;5881;48.522;7.682;2023-02-26T01:31:41;0.20;1.00
11650;DHT22;5881;48.522;7.682;2023-02-26T01:34:30;0.20;1.00
11650;DHT22;5881;48.522;7.682;2023-02-26T01:37:34;0.30;1.00
11650;DHT22;5881;48.522;7.682;2023-02-26T01:43:10;0.20;1.00
11650;DHT22;5881;48.522;7.682;2023-02-26T01:45:56;0.10;1.00
11650;DHT22;5881;48.522;7.682;2023-02-26T01:48:50;0.10;1.00
11650;DHT22;5881;48.522;7.682;2023-02-26T01:51:17;0.10;1.00
11650;DHT22;5881;48.522;7.682;2023-02-26T01:53:45;0.10;1.00
11650;DHT22;5881;48.522;7.682;2023-02-26T01:56:18;0.00;1.00
11650;DHT22;5881;48.522;7.682;2023-02-26T01:58:46;0.00;1.00
11650;DHT22;5881;48.522;7.682;2023-02-26T02:01:12;0.00;1.00
11650;DHT22;5881;48.522;7.682;2023-02-26T02:03:40;0.00;1.00
11650;DHT22;5881;48.522;7.682;2023-02-26T02:06:18;0.00;1.00
11650;DHT22;5881;48.522;7.682;2023-02-26T02:08:44;0.00;1.00
11650;DHT22;5881;48.522;7.682;2023-02-26T02:11:11;-0.10;1.00
11650;DHT22;5881;48.522;7.682;2023-02-26T02:19:23;-0.10;1.00
11650;DHT22;5881;48.522;7.682;2023-02-26T02:22:19;-0.20;1.00
11650;DHT22;5881;48.522;7.682;2023-02-26T02:25:14;-0.20;1.00
11650;DHT22;5881;48.522;7.682;2023-02-26T02:28:06;-0.20;1.00
11650;DHT22;5881;48.522;7.682;2023-02-26T02:31:03;-0.20;1.00
11650;DHT22;5881;48.522;7.682;2023-02-26T02:33:41;-0.30;1.00
11650;DHT22;5881;48.522;7.682;2023-02-26T02:36:14;-0.20;1.00
11650;DHT22;5881;48.522;7.682;2023-02-26T02:38:48;-0.30;1.00
11650;DHT22;5881;48.522;7.682;2023-02-26T02:41:20;-0.30;1.00
11650;DHT22;5881;48.522;7.682;2023-02-26T02:43:48;-0.20;1.00
11650;DHT22;5881;48.522;7.682;2023-02-26T02:46:22;-0.10;1.00
11650;DHT22;5881;48.522;7.682;2023-02-26T02:49:01;-0.30;1.00
11650;DHT22;5881;48.522;7.682;2023-02-26T02:51:36;-0.20;1.00
11650;DHT22;5881;48.522;7.682;2023-02-26T02:55:03;-0.30;1.00
11650;DHT22;5881;48.522;7.682;2023-02-26T02:57:05;-0.30;1.00
11650;DHT22;5881;48.522;7.682;2023-02-26T02:59:43;-0.30;1.00
11650;DHT22;5881;48.522;7.682;2023-02-26T03:02:26;-0.20;1.00
11650;DHT22;5881;48.522;7.682;2023-02-26T03:04:53;-0.30;1.00
11650;DHT22;5881;48.522;7.682;2023-02-26T03:07:18;-0.30;1.00
11650;DHT22;5881;48.522;7.682;2023-02-26T03:09:44;-0.20;1.00
11650;DHT22;5881;48.522;7.682;2023-02-26T03:12:10;-0.30;1.00
11650;DHT22;5881;48.522;7.682;2023-02-26T03:14:36;-0.40;1.00
11650;DHT22;5881;48.522;7.682;2023-02-26T03:25:23;-0.40;1.00
11650;DHT22;5881;48.522;7.682;2023-02-26T03:28:25;-0.50;1.00
11650;DHT22;5881;48.522;7.682;2023-02-26T03:31:07;-0.50;1.00
11650;DHT22;5881;48.522;7.682;2023-02-26T03:33:58;-0.50;1.00
11650;DHT22;5881;48.522;7.682;2023-02-26T03:36:37;-0.60;1.00
11650;DHT22;5881;48.522;7.682;2023-02-26T03:39:10;-0.60;1.00
11650;DHT22;5881;48.522;7.682;2023-02-26T03:41:45;-0.60;1.00
11650;DHT22;5881;48.522;7.682;2023-02-26T03:44:16;-0.50;1.00
11650;DHT22;5881;48.522;7.682;2023-02-26T03:46:47;-0.60;1.00
11650;DHT22;5881;48.522;7.682;2023-02-26T03:49:20;-0.70;1.00
11650;DHT22;5881;48.522;7.682;2023-02-26T03:51:48;-0.70;1.00
11650;DHT22;5881;48.522;7.682;2023-02-26T03:54:26;-0.70;1.00
11650;DHT22;5881;48.522;7.682;2023-02-26T03:56:55;-0.70;1.00
11650;DHT22;5881;48.522;7.682;2023-02-26T03:59:21;-0.70;1.00
11650;DHT22;5881;48.522;7.682;2023-02-26T04:02:01;-0.70;1.00
11650;DHT22;5881;48.522;7.682;2023-02-26T04:04:40;-0.70;1.00
11650;DHT22;5881;48.522;7.682;2023-02-26T04:07:11;-0.80;1.00
11650;DHT22;5881;48.522;7.682;2023-02-26T04:09:43;-0.80;1.00
11650;DHT22;5881;48.522;7.682;2023-02-26T04:12:10;-0.70;1.00
11650;DHT22;5881;48.522;7.682;2023-02-26T04:14:36;-0.70;1.00
11650;DHT22;5881;48.522;7.682;2023-02-26T04:17:01;-0.80;1.00
11650;DHT22;5881;48.522;7.682;2023-02-26T04:19:27;-0.80;1.00
11650;DHT22;5881;48.522;7.682;2023-02-26T04:21:52;-0.90;1.00
11650;DHT22;5881;48.522;7.682;2023-02-26T04:24:18;-0.80;1.00
11650;DHT22;5881;48.522;7.682;2023-02-26T04:26:44;-0.90;1.00
11650;DHT22;5881;48.522;7.682;2023-02-26T04:29:09;-0.80;1.00
11650;DHT22;5881;48.522;7.682;2023-02-26T04:31:35;-0.80;1.00
11650;DHT22;5881;48.522;7.682;2023-02-26T04:34:01;-0.80;1.00
11650;DHT22;5881;48.522;7.682;2023-02-26T04:36:27;-0.70;1.00
11650;DHT22;5881;48.522;7.682;2023-02-26T04:38:55;-0.80;1.00
11650;DHT22;5881;48.522;7.682;2023-02-26T04:41:21;-0.90;1.00
11650;DHT22;5881;48.522;7.682;2023-02-26T04:43:47;-0.60;1.00
11650;DHT22;5881;48.522;7.682;2023-02-26T04:46:12;-0.80;1.00
11650;DHT22;5881;48.522;7.682;2023-02-26T04:48:38;-0.80;1.00
11650;DHT22;5881;48.522;7.682;2023-02-26T04:51:04;-0.80;1.00
11650;DHT22;5881;48.522;7.682;2023-02-26T04:53:30;-0.80;1.00
11650;DHT22;5881;48.522;7.682;2023-02-26T04:55:55;-0.80;1.00
11650;DHT22;5881;48.522;7.682;2023-02-26T04:58:21;-0.90;1.00
11650;DHT22;5881;48.522;7.682;2023-02-26T05:00:48;-0.90;1.00
11650;DHT22;5881;48.522;7.682;2023-02-26T05:03:14;-0.90;1.00
11650;DHT22;5881;48.522;7.682;2023-02-26T05:05:40;-0.90;1.00
11650;DHT22;5881;48.522;7.682;2023-02-26T05:08:05;-0.90;1.00
11650;DHT22;5881;48.522;7.682;2023-02-26T05:10:31;-1.00;1.00
11650;DHT22;5881;48.522;7.682;2023-02-26T05:12:57;-0.90;1.00
11650;DHT22;5881;48.522;7.682;2023-02-26T05:15:22;-1.00;1.00
11650;DHT22;5881;48.522;7.682;2023-02-26T05:17:48;-1.00;1.00
11650;DHT22;5881;48.522;7.682;2023-02-26T05:20:13;-1.10;1.00
11650;DHT22;5881;48.522;7.682;2023-02-26T05:22:40;-1.10;1.00
11650;DHT22;5881;48.522;7.682;2023-02-26T05:25:06;-1.10;1.00
11650;DHT22;5881;48.522;7.682;2023-02-26T05:27:32;-1.10;1.00
11650;DHT22;5881;48.522;7.682;2023-02-26T05:29:58;-1.10;1.00
11650;DHT22;5881;48.522;7.682;2023-02-26T05:32:24;-1.20;1.00
11650;DHT22;5881;48.522;7.682;2023-02-26T05:34:49;-1.20;1.00
11650;DHT22;5881;48.522;7.682;2023-02-26T05:37:15;-1.10;1.00
11650;DHT22;5881;48.522;7.682;2023-02-26T05:39:40;-1.20;1.00
11650;DHT22;5881;48.522;7.682;2023-02-26T05:42:06;-1.30;1.00
11650;DHT22;5881;48.522;7.682;2023-02-26T05:44:32;-1.30;1.00
11650;DHT22;5881;48.522;7.682;2023-02-26T05:47:00;-1.30;1.00
11650;DHT22;5881;48.522;7.682;2023-02-26T05:49:26;-1.40;1.00
11650;DHT22;5881;48.522;7.682;2023-02-26T05:51:51;-1.40;1.00
11650;DHT22;5881;48.522;7.682;2023-02-26T05:54:17;-1.40;1.00
11650;DHT22;5881;48.522;7.682;2023-02-26T05:56:43;-1.30;1.00
11650;DHT22;5881;48.522;7.682;2023-02-26T05:59:08;-1.40;1.00
11650;DHT22;5881;48.522;7.682;2023-02-26T06:01:34;-1.30;1.00
11650;DHT22;5881;48.522;7.682;2023-02-26T06:04:02;-1.30;1.00
11650;DHT22;5881;48.522;7.682;2023-02-26T06:06:27;-1.30;1.00
11650;DHT22;5881;48.522;7.682;2023-02-26T06:08:53;-1.30;1.00
11650;DHT22;5881;48.522;7.682;2023-02-26T06:11:18;-1.40;1.00
11650;DHT22;5881;48.522;7.682;2023-02-26T06:13:44;-1.40;1.00
11650;DHT22;5881;48.522;7.682;2023-02-26T06:16:10;-1.30;1.00
11650;DHT22;5881;48.522;7.682;2023-02-26T06:18:35;-1.30;1.00
11650;DHT22;5881;48.522;7.682;2023-02-26T06:21:01;-1.30;1.00
11650;DHT22;5881;48.522;7.682;2023-02-26T06:23:27;-1.30;1.00
11650;DHT22;5881;48.522;7.682;2023-02-26T06:25:53;-1.30;1.00
11650;DHT22;5881;48.522;7.682;2023-02-26T06:28:18;-1.30;1.00
11650;DHT22;5881;48.522;7.682;2023-02-26T06:30:44;-1.30;1.00
11650;DHT22;5881;48.522;7.682;2023-02-26T06:33:10;-1.20;1.00
11650;DHT22;5881;48.522;7.682;2023-02-26T06:35:36;-1.20;1.00
11650;DHT22;5881;48.522;7.682;2023-02-26T06:38:02;-1.20;1.00
11650;DHT22;5881;48.522;7.682;2023-02-26T06:40:28;-1.20;1.00
11650;DHT22;5881;48.522;7.682;2023-02-26T06:42:55;-1.10;1.00
11650;DHT22;5881;48.522;7.682;2023-02-26T06:45:21;-0.10;1.00
11650;DHT22;5881;48.522;7.682;2023-02-26T06:47:47;0.80;1.00
11650;DHT22;5881;48.522;7.682;2023-02-26T06:50:13;1.20;1.00
11650;DHT22;5881;48.522;7.682;2023-02-26T06:52:39;1.50;1.00
11650;DHT22;5881;48.522;7.682;2023-02-26T06:55:05;2.00;1.00
11650;DHT22;5881;48.522;7.682;2023-02-26T06:57:30;2.10;1.00
11650;DHT22;5881;48.522;7.682;2023-02-26T06:59:56;2.30;1.00
11650;DHT22;5881;48.522;7.682;2023-02-26T07:02:22;2.20;1.00
11650;DHT22;5881;48.522;7.682;2023-02-26T07:04:48;2.80;1.00
11650;DHT22;5881;48.522;7.682;2023-02-26T07:07:14;3.10;1.00
11650;DHT22;5881;48.522;7.682;2023-02-26T07:09:40;3.40;1.00
11650;DHT22;5881;48.522;7.682;2023-02-26T07:12:06;3.30;1.00
11650;DHT22;5881;48.522;7.682;2023-02-26T07:14:35;3.50;1.00
11650;DHT22;5881;48.522;7.682;2023-02-26T07:17:01;4.10;1.00
11650;DHT22;5881;48.522;7.682;2023-02-26T07:19:27;4.50;1.00
11650;DHT22;5881;48.522;7.682;2023-02-26T07:21:52;4.20;1.00
11650;DHT22;5881;48.522;7.682;2023-02-26T07:24:20;4.30;1.00
11650;DHT22;5881;48.522;7.682;2023-02-26T07:26:45;4.20;1.00
11650;DHT22;5881;48.522;7.682;2023-02-26T07:29:11;4.50;1.00
11650;DHT22;5881;48.522;7.682;2023-02-26T07:31:36;4.40;1.00
11650;DHT22;5881;48.522;7.682;2023-02-26T07:34:02;4.50;1.00
11650;DHT22;5881;48.522;7.682;2023-02-26T07:36:28;4.40;1.00
11650;DHT22;5881;48.522;7.682;2023-02-26T07:38:54;5.30;1.00
11650;DHT22;5881;48.522;7.682;2023-02-26T07:41:20;5.20;1.00
11650;DHT22;5881;48.522;7.682;2023-02-26T07:43:45;5.50;1.00
11650;DHT22;5881;48.522;7.682;2023-02-26T07:46:11;5.50;1.00
11650;DHT22;5881;48.522;7.682;2023-02-26T07:48:37;5.50;1.00
11650;DHT22;5881;48.522;7.682;2023-02-26T07:51:03;4.90;1.00
11650;DHT22;5881;48.522;7.682;2023-02-26T07:53:29;5.30;1.00
11650;DHT22;5881;48.522;7.682;2023-02-26T07:55:55;5.50;1.00
11650;DHT22;5881;48.522;7.682;2023-02-26T07:58:20;5.90;1.00
11650;DHT22;5881;48.522;7.682;2023-02-26T08:00:46;5.50;1.00
11650;DHT22;5881;48.522;7.682;2023-02-26T08:03:11;5.20;1.00
11650;DHT22;5881;48.522;7.682;2023-02-26T08:05:37;4.70;1.00
11650;DHT22;5881;48.522;7.682;2023-02-26T08:08:03;4.70;1.00
11650;DHT22;5881;48.522;7.682;2023-02-26T08:10:29;4.50;1.00
11650;DHT22;5881;48.522;7.682;2023-02-26T08:12:54;4.30;1.00
11650;DHT22;5881;48.522;7.682;2023-02-26T08:15:20;4.90;1.00
11650;DHT22;5881;48.522;7.682;2023-02-26T08:17:46;5.80;1.00
11650;DHT22;5881;48.522;7.682;2023-02-26T08:20:12;4.90;1.00
11650;DHT22;5881;48.522;7.682;2023-02-26T08:22:40;5.20;1.00
11650;DHT22;5881;48.522;7.682;2023-02-26T08:25:05;5.90;1.00
11650;DHT22;5881;48.522;7.682;2023-02-26T08:27:31;4.80;1.00
11650;DHT22;5881;48.522;7.682;2023-02-26T08:30:01;4.30;1.00
11650;DHT22;5881;48.522;7.682;2023-02-26T08:32:27;4.10;1.00
11650;DHT22;5881;48.522;7.682;2023-02-26T08:34:53;4.60;1.00
11650;DHT22;5881;48.522;7.682;2023-02-26T08:37:18;3.70;1.00
11650;DHT22;5881;48.522;7.682;2023-02-26T08:39:46;3.30;1.00
11650;DHT22;5881;48.522;7.682;2023-02-26T08:42:12;3.20;1.00
11650;DHT22;5881;48.522;7.682;2023-02-26T08:44:41;3.10;1.00
11650;DHT22;5881;48.522;7.682;2023-02-26T08:47:07;3.20;1.00
11650;DHT22;5881;48.522;7.682;2023-02-26T08:49:33;4.10;1.00
11650;DHT22;5881;48.522;7.682;2023-02-26T08:51:58;3.90;1.00
11650;DHT22;5881;48.522;7.682;2023-02-26T08:54:24;2.90;1.00
11650;DHT22;5881;48.522;7.682;2023-02-26T08:56:50;4.80;1.00
11650;DHT22;5881;48.522;7.682;2023-02-26T08:59:15;4.70;1.00
11650;DHT22;5881;48.522;7.682;2023-02-26T09:01:41;3.80;1.00
11650;DHT22;5881;48.522;7.682;2023-02-26T09:04:07;5.20;1.00
11650;DHT22;5881;48.522;7.682;2023-02-26T09:06:32;6.50;1.00
11650;DHT22;5881;48.522;7.682;2023-02-26T09:08:58;5.50;1.00
11650;DHT22;5881;48.522;7.682;2023-02-26T09:11:23;5.80;1.00
11650;DHT22;5881;48.522;7.682;2023-02-26T09:13:49;5.40;1.00
11650;DHT22;5881;48.522;7.682;2023-02-26T09:16:15;4.50;1.00
11650;DHT22;5881;48.522;7.682;2023-02-26T09:18:41;3.70;1.00
11650;DHT22;5881;48.522;7.682;2023-02-26T09:21:06;3.40;1.00
11650;DHT22;5881;48.522;7.682;2023-02-26T09:23:32;3.30;1.00
11650;DHT22;5881;48.522;7.682;2023-02-26T09:25:58;3.90;1.00
11650;DHT22;5881;48.522;7.682;2023-02-26T09:28:24;5.00;1.00
11650;DHT22;5881;48.522;7.682;2023-02-26T09:30:51;5.60;1.00
11650;DHT22;5881;48.522;7.682;2023-02-26T09:33:17;7.50;1.00
11650;DHT22;5881;48.522;7.682;2023-02-26T09:35:43;6.70;1.00
11650;DHT22;5881;48.522;7.682;2023-02-26T09:38:09;6.50;1.00
11650;DHT22;5881;48.522;7.682;2023-02-26T09:46:27;6.10;1.00
11650;DHT22;5881;48.522;7.682;2023-02-26T09:49:17;6.30;1.00
11650;DHT22;5881;48.522;7.682;2023-02-26T09:51:45;6.00;1.00
11650;DHT22;5881;48.522;7.682;2023-02-26T09:54:23;7.10;1.00
11650;DHT22;5881;48.522;7.682;2023-02-26T09:56:51;7.50;1.00
11650;DHT22;5881;48.522;7.682;2023-02-26T09:59:17;8.00;1.00
11650;DHT22;5881;48.522;7.682;2023-02-26T10:01:58;7.60;1.00
11650;DHT22;5881;48.522;7.682;2023-02-26T10:04:56;6.40;1.00
11650;DHT22;5881;48.522;7.682;2023-02-26T10:10:40;8.10;1.00
11650;DHT22;5881;48.522;7.682;2023-02-26T10:13:29;7.80;1.00
11650;DHT22;5881;48.522;7.682;2023-02-26T10:16:03;7.60;1.00
11650;DHT22;5881;48.522;7.682;2023-02-26T10:18:34;8.50;1.00
11650;DHT22;5881;48.522;7.682;2023-02-26T10:21:14;8.30;1.00
11650;DHT22;5881;48.522;7.682;2023-02-26T10:23:50;9.20;1.00
11650;DHT22;5881;48.522;7.682;2023-02-26T10:26:21;7.40;1.00
11650;DHT22;5881;48.522;7.682;2023-02-26T10:28:56;5.90;1.00
11650;DHT22;5881;48.522;7.682;2023-02-26T10:31:50;4.90;1.00
11650;DHT22;5881;48.522;7.682;2023-02-26T10:39:46;2.80;1.00
11650;DHT22;5881;48.522;7.682;2023-02-26T10:42:25;2.80;1.00
11650;DHT22;5881;48.522;7.682;2023-02-26T10:50:53;3.40;1.00
11650;DHT22;5881;48.522;7.682;2023-02-26T10:53:22;3.50;1.00
11650;DHT22;5881;48.522;7.682;2023-02-26T10:56:01;3.30;1.00
11650;DHT22;5881;48.522;7.682;2023-02-26T10:58:29;3.00;1.00
11650;DHT22;5881;48.522;7.682;2023-02-26T11:00:55;3.00;1.00
11650;DHT22;5881;48.522;7.682;2023-02-26T11:03:35;2.70;1.00
11650;DHT22;5881;48.522;7.682;2023-02-26T11:06:02;3.00;1.00
11650;DHT22;5881;48.522;7.682;2023-02-26T11:08:34;2.60;1.00
11650;DHT22;5881;48.522;7.682;2023-02-26T11:11:03;2.80;1.00
11650;DHT22;5881;48.522;7.682;2023-02-26T11:13:31;2.70;1.00
11650;DHT22;5881;48.522;7.682;2023-02-26T11:16:01;2.80;1.00
11650;DHT22;5881;48.522;7.682;2023-02-26T11:18:30;3.00;1.00
11650;DHT22;5881;48.522;7.682;2023-02-26T11:21:03;2.90;1.00
11650;DHT22;5881;48.522;7.682;2023-02-26T11:23:30;3.10;1.00
11650;DHT22;5881;48.522;7.682;2023-02-26T11:26:02;2.70;1.00
11650;DHT22;5881;48.522;7.682;2023-02-26T11:28:35;2.80;1.00
11650;DHT22;5881;48.522;7.682;2023-02-26T11:31:05;2.80;1.00
11650;DHT22;5881;48.522;7.682;2023-02-26T11:33:39;3.20;1.00
11650;DHT22;5881;48.522;7.682;2023-02-26T11:36:13;3.50;1.00
11650;DHT22;5881;48.522;7.682;2023-02-26T11:38:40;3.40;1.00
11650;DHT22;5881;48.522;7.682;2023-02-26T11:41:10;3.10;1.00
11650;DHT22;5881;48.522;7.682;2023-02-26T11:43:42;2.70;1.00
11650;DHT22;5881;48.522;7.682;2023-02-26T11:46:09;2.90;1.00
11650;DHT22;5881;48.522;7.682;2023-02-26T11:48:46;3.10;1.00
11650;DHT22;5881;48.522;7.682;2023-02-26T11:51:14;2.80;1.00
11650;DHT22;5881;48.522;7.682;2023-02-26T11:53:47;2.90;1.00
11650;DHT22;5881;48.522;7.682;2023-02-26T11:56:51;2.80;1.00
11650;DHT22;5881;48.522;7.682;2023-02-26T11:59:20;3.10;1.00
11650;DHT22;5881;48.522;7.682;2023-02-26T12:01:47;3.80;1.00
11650;DHT22;5881;48.522;7.682;2023-02-26T12:04:17;4.00;1.00
11650;DHT22;5881;48.522;7.682;2023-02-26T12:06:43;4.30;1.00
11650;DHT22;5881;48.522;7.682;2023-02-26T12:09:13;4.60;1.00
11650;DHT22;5881;48.522;7.682;2023-02-26T12:12:43;4.90;1.00
11650;DHT22;5881;48.522;7.682;2023-02-26T12:14:43;4.40;1.00
11650;DHT22;5881;48.522;7.682;2023-02-26T12:17:49;4.70;1.00
11650;DHT22;5881;48.522;7.682;2023-02-26T12:20:43;4.40;1.00
11650;DHT22;5881;48.522;7.682;2023-02-26T12:23:34;4.90;1.00
11650;DHT22;5881;48.522;7.682;2023-02-26T13:03:36;3.00;1.00
11650;DHT22;5881;48.522;7.682;2023-02-26T13:08:59;3.40;1.00
11650;DHT22;5881;48.522;7.682;2023-02-26T13:20:10;3.40;1.00
11650;DHT22;5881;48.522;7.682;2023-02-26T13:23:01;3.10;1.00
11650;DHT22;5881;48.522;7.682;2023-02-26T13:25:43;3.00;1.00
11650;DHT22;5881;48.522;7.682;2023-02-26T13:28:23;3.00;1.00
11650;DHT22;5881;48.522;7.682;2023-02-26T13:30:53;2.70;1.00
11650;DHT22;5881;48.522;7.682;2023-02-26T13:33:23;2.90;1.00
11650;DHT22;5881;48.522;7.682;2023-02-26T13:35:52;3.00;1.00
11650;DHT22;5881;48.522;7.682;2023-02-26T13:41:23;3.10;1.00
11650;DHT22;5881;48.522;7.682;2023-02-26T13:49:17;3.80;1.00
11650;DHT22;5881;48.522;7.682;2023-02-26T13:51:46;3.70;1.00
11650;DHT22;5881;48.522;7.682;2023-02-26T14:01:55;3.30;1.00
11650;DHT22;5881;48.522;7.682;2023-02-26T14:06:58;3.20;1.00
11650;DHT22;5881;48.522;7.682;2023-02-26T14:09:35;3.20;1.00
11650;DHT22;5881;48.522;7.682;2023-02-26T14:17:36;3.00;1.00
11650;DHT22;5881;48.522;7.682;2023-02-26T14:20:16;2.90;1.00
11650;DHT22;5881;48.522;7.682;2023-02-26T14:22:45;3.10;1.00
11650;DHT22;5881;48.522;7.682;2023-02-26T14:27:42;2.90;1.00
11650;DHT22;5881;48.522;7.682;2023-02-26T14:35:42;3.10;1.00
11650;DHT22;5881;48.522;7.682;2023-02-26T14:38:20;3.10;1.00
11650;DHT22;5881;48.522;7.682;2023-02-26T14:45:56;3.20;1.00
11650;DHT22;5881;48.522;7.682;2023-02-26T14:48:22;3.20;1.00
11650;DHT22;5881;48.522;7.682;2023-02-26T14:57:11;3.50;1.00
11650;DHT22;5881;48.522;7.682;2023-02-26T15:03:03;3.60;1.00
11650;DHT22;5881;48.522;7.682;2023-02-26T15:08:59;2.50;1.00
11650;DHT22;5881;48.522;7.682;2023-02-26T15:16:57;2.50;1.00
11650;DHT22;5881;48.522;7.682;2023-02-26T15:19:55;2.70;1.00
11650;DHT22;5881;48.522;7.682;2023-02-26T15:25:15;2.50;1.00
11650;DHT22;5881;48.522;7.682;2023-02-26T15:27:41;2.50;1.00
11650;DHT22;5881;48.522;7.682;2023-02-26T15:30:11;2.80;1.00
11650;DHT22;5881;48.522;7.682;2023-02-26T15:32:37;2.90;1.00
11650;DHT22;5881;48.522;7.682;2023-02-26T15:35:20;3.00;1.00
11650;DHT22;5881;48.522;7.682;2023-02-26T15:37:53;3.00;1.00
11650;DHT22;5881;48.522;7.682;2023-02-26T15:40:19;3.00;1.00
11650;DHT22;5881;48.522;7.682;2023-02-26T15:42:50;3.00;1.00
11650;DHT22;5881;48.522;7.682;2023-02-26T15:45:30;3.00;1.00
11650;DHT22;5881;48.522;7.682;2023-02-26T15:48:02;3.10;1.00
11650;DHT22;5881;48.522;7.682;2023-02-26T15:50:32;3.00;1.00
11650;DHT22;5881;48.522;7.682;2023-02-26T15:53:01;2.80;1.00
11650;DHT22;5881;48.522;7.682;2023-02-26T15:55:31;2.60;1.00
11650;DHT22;5881;48.522;7.682;2023-02-26T15:58:06;2.10;1.00
11650;DHT22;5881;48.522;7.682;2023-02-26T16:00:40;2.00;1.00
11650;DHT22;5881;48.522;7.682;2023-02-26T16:03:11;1.90;1.00
11650;DHT22;5881;48.522;7.682;2023-02-26T16:05:36;1.90;1.00
11650;DHT22;5881;48.522;7.682;2023-02-26T16:08:03;2.00;99.90
11650;DHT22;5881;48.522;7.682;2023-02-26T16:10:35;2.10;1.00
11650;DHT22;5881;48.522;7.682;2023-02-26T16:13:04;2.20;1.00
11650;DHT22;5881;48.522;7.682;2023-02-26T16:15:35;2.20;1.00
11650;DHT22;5881;48.522;7.682;2023-02-26T16:18:10;2.30;1.00
11650;DHT22;5881;48.522;7.682;2023-02-26T16:20:43;2.30;1.00
11650;DHT22;5881;48.522;7.682;2023-02-26T16:23:20;2.30;1.00
11650;DHT22;5881;48.522;7.682;2023-02-26T16:25:54;2.30;1.00
11650;DHT22;5881;48.522;7.682;2023-02-26T16:28:27;2.50;1.00
11650;DHT22;5881;48.522;7.682;2023-02-26T16:30:55;2.70;1.00
11650;DHT22;5881;48.522;7.682;2023-02-26T16:33:24;2.80;1.00
11650;DHT22;5881;48.522;7.682;2023-02-26T16:35:56;2.70;1.00
11650;DHT22;5881;48.522;7.682;2023-02-26T16:38:31;2.70;1.00
11650;DHT22;5881;48.522;7.682;2023-02-26T16:40:59;2.70;1.00
11650;DHT22;5881;48.522;7.682;2023-02-26T16:43:33;2.70;1.00
11650;DHT22;5881;48.522;7.682;2023-02-26T16:46:02;2.60;1.00
11650;DHT22;5881;48.522;7.682;2023-02-26T16:48:31;2.70;1.00
11650;DHT22;5881;48.522;7.682;2023-02-26T16:51:10;2.60;1.00
11650;DHT22;5881;48.522;7.682;2023-02-26T16:53:47;2.60;1.00
11650;DHT22;5881;48.522;7.682;2023-02-26T16:56:19;2.50;1.00
11650;DHT22;5881;48.522;7.682;2023-02-26T16:58:56;2.40;1.00
11650;DHT22;5881;48.522;7.682;2023-02-26T17:01:30;2.40;1.00
11650;DHT22;5881;48.522;7.682;2023-02-26T17:04:05;2.40;1.00
11650;DHT22;5881;48.522;7.682;2023-02-26T17:06:56;2.40;1.00
11650;DHT22;5881;48.522;7.682;2023-02-26T17:14:36;2.30;1.00
11650;DHT22;5881;48.522;7.682;2023-02-26T17:17:03;2.30;1.00
11650;DHT22;5881;48.522;7.682;2023-02-26T17:19:28;2.30;1.00
11650;DHT22;5881;48.522;7.682;2023-02-26T17:21:56;2.20;1.00
11650;DHT22;5881;48.522;7.682;2023-02-26T17:24:29;2.10;1.00
11650;DHT22;5881;48.522;7.682;2023-02-26T17:26:56;2.00;1.00
11650;DHT22;5881;48.522;7.682;2023-02-26T17:29:28;1.90;1.00
11650;DHT22;5881;48.522;7.682;2023-02-26T17:31:55;2.10;1.00
11650;DHT22;5881;48.522;7.682;2023-02-26T17:34:20;1.80;1.00
11650;DHT22;5881;48.522;7.682;2023-02-26T17:36:47;1.80;1.00
11650;DHT22;5881;48.522;7.682;2023-02-26T17:39:13;1.70;1.00
11650;DHT22;5881;48.522;7.682;2023-02-26T17:41:41;1.90;1.00
11650;DHT22;5881;48.522;7.682;2023-02-26T17:44:07;1.80;1.00
11650;DHT22;5881;48.522;7.682;2023-02-26T17:46:33;1.90;1.00
11650;DHT22;5881;48.522;7.682;2023-02-26T17:48:58;1.90;1.00
11650;DHT22;5881;48.522;7.682;2023-02-26T17:51:24;1.80;1.00
11650;DHT22;5881;48.522;7.682;2023-02-26T17:53:51;2.00;1.00
11650;DHT22;5881;48.522;7.682;2023-02-26T17:56:23;2.00;1.00
11650;DHT22;5881;48.522;7.682;2023-02-26T17:58:50;1.90;1.00
11650;DHT22;5881;48.522;7.682;2023-02-26T18:01:16;1.90;1.00
11650;DHT22;5881;48.522;7.682;2023-02-26T18:03:42;1.90;1.00
11650;DHT22;5881;48.522;7.682;2023-02-26T18:06:10;2.00;1.00
11650;DHT22;5881;48.522;7.682;2023-02-26T18:08:37;1.90;1.00
11650;DHT22;5881;48.522;7.682;2023-02-26T18:11:05;2.00;1.00
11650;DHT22;5881;48.522;7.682;2023-02-26T18:13:31;1.80;1.00
11650;DHT22;5881;48.522;7.682;2023-02-26T18:15:57;1.80;1.00
11650;DHT22;5881;48.522;7.682;2023-02-26T18:18:25;1.80;1.00
11650;DHT22;5881;48.522;7.682;2023-02-26T18:20:53;1.70;1.00
11650;DHT22;5881;48.522;7.682;2023-02-26T18:23:19;1.80;1.00
11650;DHT22;5881;48.522;7.682;2023-02-26T18:25:46;1.90;1.00
11650;DHT22;5881;48.522;7.682;2023-02-26T18:28:21;2.00;1.00
11650;DHT22;5881;48.522;7.682;2023-02-26T18:30:48;1.90;1.00
11650;DHT22;5881;48.522;7.682;2023-02-26T18:33:14;1.90;1.00
11650;DHT22;5881;48.522;7.682;2023-02-26T18:35:47;1.90;1.00
11650;DHT22;5881;48.522;7.682;2023-02-26T18:38:17;2.00;1.00
11650;DHT22;5881;48.522;7.682;2023-02-26T18:40:43;1.90;1.00
11650;DHT22;5881;48.522;7.682;2023-02-26T18:43:10;1.90;1.00
11650;DHT22;5881;48.522;7.682;2023-02-26T18:45:41;1.90;1.00
11650;DHT22;5881;48.522;7.682;2023-02-26T18:48:09;2.00;1.00
11650;DHT22;5881;48.522;7.682;2023-02-26T18:50:36;2.10;1.00
11650;DHT22;5881;48.522;7.682;2023-02-26T18:53:02;2.00;1.00
11650;DHT22;5881;48.522;7.682;2023-02-26T18:55:28;2.00;1.00
11650;DHT22;5881;48.522;7.682;2023-02-26T18:57:54;2.00;1.00
11650;DHT22;5881;48.522;7.682;2023-02-26T19:00:20;2.00;1.00
11650;DHT22;5881;48.522;7.682;2023-02-26T19:02:46;2.10;1.00
11650;DHT22;5881;48.522;7.682;2023-02-26T19:05:12;2.00;1.00
11650;DHT22;5881;48.522;7.682;2023-02-26T19:07:39;2.00;1.00
11650;DHT22;5881;48.522;7.682;2023-02-26T19:10:06;2.00;1.00
11650;DHT22;5881;48.522;7.682;2023-02-26T19:12:34;1.90;1.00